PGUM/GUM METAR and TAF weather

Enter ICAO airport designator
Station Type Date Time Source
PGUM METAR 2024/04/18 05:54 UTC NOAA

PGUM 180554Z 11008G16KT 10SM FEW025 30/22 A2978 RMK AO2 SLP076 T03000222 10317 20294 56011


Station Type Date Time Source
PGUM Decoded METAR 2024/04/18 05:54 UTC NOAA

Agana, Guam International Airport, GU, United States (PGUM) 13-29N 144-48E
Apr 18, 2024 - 01:54 AM EDT / 2024.04.18 0554 UTC
Wind: from the ESE (110 degrees) at 9 MPH (8 KT) gusting to 18 MPH (16 KT):0
Visibility: 10 mile(s):0
Sky conditions: mostly clear
Temperature: 86.0 F (30.0 C)
Heat index: 92.1 F (33.4 C):1
Dew Point: 72.0 F (22.2 C)
Relative Humidity: 63%
Pressure (altimeter): 29.78 in. Hg (1008 hPa)
Pressure tendency: 0.03 inches (1.1 hPa) lower than three hours ago
ob: PGUM 180554Z 11008G16KT 10SM FEW025 30/22 A2978 RMK AO2 SLP076 T03000222 10317 20294 56011
cycle: 6

Station Type Date Time Source
PGUM TAF 2024/04/18 18:33 UTC NOAA